Terminal Aerodrome Forecast
Issued by NWS

Home | Current Version | Previous Version | Text Only | Print | Product List | Glossary On
Versions: 1 2 3 4 5 6 7 8 9 10 11 12 13
692
FTUS45 KRIW 240540
TAFCOD
TAF
KCOD 240540Z 2406/2506 36011KT 4SM -SN BR OVC010
      TEMPO 2406/2410 2SM -SN BR
     FM241600 36011KT P6SM VCSH OVC015
     FM242000 36007KT P6SM SCT015 BKN035
     FM250000 VRB05KT P6SM SCT100 BKN150
      AMD LTD TO CLD VIS AND WIND=

USA.gov is the U.S. government's official web portal to all federal, state and local government web resources and services.